createdAt,value
2017-08-19T00:00:55.559Z,99.20
2017-08-19T00:03:23.081Z,99.20
2017-08-19T00:05:51.149Z,98.70
2017-08-19T00:08:18.652Z,98.90
2017-08-19T00:10:47.397Z,98.40
2017-08-19T00:13:14.899Z,98.20
2017-08-19T00:15:42.410Z,98.30
2017-08-19T00:18:09.916Z,98.90
2017-08-19T00:20:39.658Z,98.80
2017-08-19T00:23:07.284Z,99.00
2017-08-19T00:25:34.783Z,99.50
2017-08-19T00:28:02.352Z,99.50
2017-08-19T00:30:30.661Z,99.50
2017-08-19T00:32:58.170Z,99.10
2017-08-19T00:35:26.112Z,99.00
2017-08-19T00:37:53.635Z,99.40
2017-08-19T00:40:21.143Z,99.60
2017-08-19T00:42:49.695Z,99.60
2017-08-19T00:45:17.258Z,99.90
2017-08-19T00:47:44.770Z,99.90
2017-08-19T00:50:15.974Z,99.90
2017-08-19T00:52:44.398Z,99.90
2017-08-19T00:55:11.939Z,99.90
2017-08-19T00:57:39.491Z,99.90
2017-08-19T01:00:06.990Z,99.90
2017-08-19T01:02:34.503Z,99.90
2017-08-19T01:05:02.032Z,99.90
2017-08-19T01:07:32.650Z,99.90
2017-08-19T01:10:00.169Z,99.90
2017-08-19T01:12:28.310Z,99.90
2017-08-19T01:14:56.221Z,99.90
2017-08-19T01:17:23.727Z,99.80
2017-08-19T01:19:51.230Z,99.90
2017-08-19T01:22:21.714Z,99.80
2017-08-19T01:24:50.407Z,99.90
2017-08-19T01:27:18.000Z,99.90
2017-08-19T01:29:45.543Z,99.90
2017-08-19T01:32:13.043Z,99.90
2017-08-19T01:34:40.607Z,99.90
2017-08-19T01:37:08.115Z,99.80
2017-08-19T01:39:35.619Z,99.90
2017-08-19T01:42:03.164Z,99.90
2017-08-19T01:44:31.560Z,99.90
2017-08-19T01:46:59.088Z,99.90
2017-08-19T01:49:26.676Z,99.90
2017-08-19T01:51:54.220Z,99.70
2017-08-19T01:54:21.764Z,99.90
2017-08-19T01:56:49.272Z,99.70
2017-08-19T01:59:16.868Z,99.80
2017-08-19T02:01:45.282Z,99.70
2017-08-19T02:04:12.807Z,99.50
2017-08-19T02:06:47.642Z,99.70
2017-08-19T02:09:16.259Z,99.80
2017-08-19T02:11:43.778Z,99.90
2017-08-19T02:14:12.198Z,99.80
2017-08-19T02:16:40.143Z,99.60
2017-08-19T02:19:07.651Z,99.90
2017-08-19T02:21:35.185Z,99.80
2017-08-19T02:24:02.693Z,99.90
2017-08-19T02:26:30.620Z,99.70
2017-08-19T02:28:58.412Z,99.90
2017-08-19T02:31:25.912Z,99.90
2017-08-19T02:33:53.976Z,99.90
2017-08-19T02:36:21.475Z,99.90
2017-08-19T02:38:48.982Z,99.90
2017-08-19T02:41:16.499Z,99.90
2017-08-19T02:43:44.011Z,99.60
2017-08-19T02:46:11.556Z,99.30
2017-08-19T02:48:39.064Z,99.00
2017-08-19T02:51:07.377Z,99.20
2017-08-19T02:53:35.084Z,99.00
2017-08-19T02:56:02.705Z,99.40
2017-08-19T02:58:30.951Z,99.40
2017-08-19T03:00:58.469Z,99.70
2017-08-19T03:03:26.756Z,99.70
2017-08-19T03:05:54.276Z,99.40
2017-08-19T03:08:21.776Z,98.80
2017-08-19T03:10:49.331Z,99.10
2017-08-19T03:13:16.861Z,98.90
2017-08-19T03:15:44.433Z,99.20
2017-08-19T03:18:12.016Z,99.20
2017-08-19T03:20:40.287Z,99.40
2017-08-19T03:23:07.801Z,99.70
2017-08-19T03:25:36.119Z,99.70
2017-08-19T03:28:03.626Z,99.70
2017-08-19T03:30:31.180Z,99.40
2017-08-19T03:32:59.020Z,99.20
2017-08-19T03:35:26.631Z,99.70
2017-08-19T03:37:54.147Z,99.60
2017-08-19T03:40:21.657Z,99.70
2017-08-19T03:42:49.220Z,99.00
2017-08-19T03:45:16.719Z,99.40
2017-08-19T03:47:44.720Z,99.10
2017-08-19T03:50:14.352Z,99.30
2017-08-19T03:52:46.148Z,99.30
2017-08-19T03:55:14.161Z,99.30
2017-08-19T03:57:41.756Z,99.60
2017-08-19T04:00:09.264Z,99.70
2017-08-19T04:02:36.763Z,99.70
2017-08-19T04:05:04.343Z,99.90
2017-08-19T04:07:32.449Z,99.90
2017-08-19T04:09:59.994Z,99.90
2017-08-19T04:12:27.575Z,99.90
2017-08-19T04:14:55.091Z,99.90
2017-08-19T04:17:22.855Z,99.90
2017-08-19T04:19:50.351Z,99.90
2017-08-19T04:22:17.858Z,99.90
2017-08-19T04:24:46.306Z,99.90
2017-08-19T04:27:13.860Z,99.90
2017-08-19T04:29:41.371Z,99.90
2017-08-19T04:32:09.015Z,99.90
2017-08-19T04:34:36.513Z,99.90
2017-08-19T04:37:04.129Z,99.90
2017-08-19T04:39:32.730Z,99.90
2017-08-19T04:42:00.237Z,99.90
2017-08-19T04:44:27.787Z,99.90
2017-08-19T04:46:55.287Z,99.90
2017-08-19T04:49:22.792Z,99.70
2017-08-19T04:51:50.362Z,99.80
2017-08-19T04:54:18.026Z,99.10
2017-08-19T04:56:53.443Z,99.30
2017-08-19T04:59:20.955Z,99.40
2017-08-19T05:01:49.380Z,99.10
2017-08-19T05:04:16.903Z,98.70
2017-08-19T05:06:44.410Z,98.50
2017-08-19T05:09:11.922Z,98.20
2017-08-19T05:11:43.363Z,98.50
2017-08-19T05:14:11.279Z,97.50
2017-08-19T05:16:39.183Z,98.00
2017-08-19T05:19:07.131Z,96.10
2017-08-19T05:21:34.636Z,95.90
2017-08-19T05:24:02.143Z,96.30
2017-08-19T05:26:30.119Z,95.80
2017-08-19T05:28:58.768Z,94.60
2017-08-19T05:31:26.280Z,94.10
2017-08-19T05:33:53.785Z,93.90
2017-08-19T05:36:21.292Z,93.80
2017-08-19T05:38:48.804Z,93.30
2017-08-19T05:41:17.272Z,93.60
2017-08-19T05:43:44.790Z,94.20
2017-08-19T05:46:15.068Z,93.00
2017-08-19T05:48:42.568Z,92.90
2017-08-19T05:51:10.291Z,93.70
2017-08-19T05:53:37.796Z,94.70
2017-08-19T05:56:08.247Z,94.30
2017-08-19T05:58:35.800Z,92.10
2017-08-19T06:01:04.363Z,91.90
2017-08-19T06:03:31.909Z,91.80
2017-08-19T06:05:59.414Z,91.70
2017-08-19T06:08:26.924Z,91.80
2017-08-19T06:11:01.755Z,93.30
2017-08-19T06:13:29.360Z,93.60
2017-08-19T06:15:56.879Z,93.80
2017-08-19T06:18:25.222Z,92.30
2017-08-19T06:20:52.731Z,92.60
2017-08-19T06:23:20.244Z,93.40
2017-08-19T06:25:47.751Z,92.70
2017-08-19T06:28:19.720Z,91.00
2017-08-19T06:30:47.259Z,91.80
2017-08-19T06:33:14.800Z,93.10
2017-08-19T06:35:42.317Z,88.40
2017-08-19T06:38:10.568Z,90.30
2017-08-19T06:40:41.519Z,91.30
2017-08-19T06:43:09.076Z,91.90
2017-08-19T06:45:36.751Z,91.90
2017-08-19T06:48:04.255Z,91.00
2017-08-19T06:50:31.771Z,90.60
2017-08-19T06:53:00.038Z,91.80
2017-08-19T06:55:27.601Z,90.00
2017-08-19T06:57:59.794Z,88.00
2017-08-19T07:00:27.407Z,89.00
2017-08-19T07:02:55.049Z,90.80
2017-08-19T07:05:23.947Z,90.00
2017-08-19T07:07:51.496Z,91.00
2017-08-19T07:10:19.950Z,89.60
2017-08-19T07:12:48.165Z,88.00
2017-08-19T07:15:17.498Z,90.70
2017-08-19T07:17:45.060Z,91.40
2017-08-19T07:20:12.612Z,87.80
2017-08-19T07:22:40.144Z,89.60
2017-08-19T07:25:08.329Z,91.40
2017-08-19T07:27:43.372Z,91.00
2017-08-19T07:30:10.879Z,88.60
2017-08-19T07:32:38.397Z,86.80
2017-08-19T07:35:05.925Z,88.10
2017-08-19T07:37:34.399Z,89.00
2017-08-19T07:40:01.901Z,88.10
2017-08-19T07:42:29.476Z,89.20
2017-08-19T07:44:56.972Z,88.80
2017-08-19T07:47:24.486Z,89.70
2017-08-19T07:49:51.994Z,88.80
2017-08-19T07:52:19.544Z,87.80
2017-08-19T07:54:47.065Z,86.90
2017-08-19T07:57:14.602Z,88.40
2017-08-19T07:59:42.841Z,88.20
2017-08-19T08:02:10.355Z,87.70
2017-08-19T08:04:37.859Z,83.70
2017-08-19T08:07:05.551Z,83.60
2017-08-19T08:09:33.182Z,84.90
2017-08-19T08:12:01.619Z,83.60
2017-08-19T08:14:29.182Z,78.50
2017-08-19T08:16:56.692Z,77.40
2017-08-19T08:19:24.198Z,73.80
2017-08-19T08:21:51.787Z,74.20
2017-08-19T08:24:19.473Z,74.10
2017-08-19T08:26:46.988Z,74.50
2017-08-19T08:29:15.888Z,73.20
2017-08-19T08:31:43.726Z,72.00
2017-08-19T08:34:11.279Z,72.10
2017-08-19T08:36:38.791Z,77.80
2017-08-19T08:39:06.295Z,67.90
2017-08-19T08:41:34.765Z,70.80
2017-08-19T08:44:02.287Z,66.80
2017-08-19T08:46:32.911Z,61.60
2017-08-19T08:49:00.455Z,63.50
2017-08-19T08:51:27.984Z,63.10
2017-08-19T08:53:55.548Z,59.70
2017-08-19T08:56:23.820Z,54.00
2017-08-19T08:58:51.330Z,53.60
2017-08-19T09:01:18.895Z,49.50
2017-08-19T09:03:46.432Z,50.50
2017-08-19T09:06:14.699Z,46.10
2017-08-19T09:08:43.168Z,46.00
2017-08-19T09:11:10.687Z,46.00
2017-08-19T09:13:38.208Z,44.60
2017-08-19T09:16:10.043Z,42.70
2017-08-19T09:18:38.229Z,37.80
2017-08-19T09:21:06.600Z,36.20
2017-08-19T09:23:34.168Z,36.70
2017-08-19T09:26:02.593Z,38.50
2017-08-19T09:28:30.131Z,33.10
2017-08-19T09:31:01.153Z,32.30
2017-08-19T09:33:28.665Z,30.90
2017-08-19T09:35:56.916Z,26.70
2017-08-19T09:38:24.540Z,28.70
2017-08-19T09:40:52.075Z,28.10
2017-08-19T09:43:20.412Z,28.60
2017-08-19T09:45:47.928Z,34.30
2017-08-19T09:48:15.429Z,34.30
2017-08-19T09:50:42.931Z,31.50
2017-08-19T09:53:11.090Z,32.30
2017-08-19T09:55:38.624Z,31.10
2017-08-19T09:58:06.143Z,30.50
2017-08-19T10:00:37.255Z,32.50
2017-08-19T10:03:04.800Z,31.50
2017-08-19T10:05:32.299Z,33.50
2017-08-19T10:08:01.013Z,29.00
2017-08-19T10:10:40.397Z,30.20
2017-08-19T10:13:07.919Z,27.90
2017-08-19T10:15:35.423Z,27.20
2017-08-19T10:18:06.969Z,25.80
2017-08-19T10:20:34.532Z,28.50
2017-08-19T10:23:02.036Z,27.60
2017-08-19T10:25:29.547Z,26.20
2017-08-19T10:27:57.093Z,28.40
2017-08-19T10:30:24.599Z,29.80
2017-08-19T10:32:52.107Z,30.10
2017-08-19T10:35:24.144Z,28.90
2017-08-19T10:37:52.460Z,26.10
2017-08-19T10:40:20.011Z,26.50
2017-08-19T10:42:47.509Z,26.20
2017-08-19T10:45:19.075Z,26.30
2017-08-19T10:47:46.576Z,29.40
2017-08-19T10:50:14.136Z,24.50
2017-08-19T10:52:42.412Z,25.80
2017-08-19T10:55:09.911Z,25.80
2017-08-19T10:57:37.425Z,24.40
2017-08-19T11:00:06.628Z,26.70
2017-08-19T11:02:34.131Z,26.60
2017-08-19T11:05:01.655Z,27.70
2017-08-19T11:07:29.155Z,27.20
2017-08-19T11:09:56.671Z,30.60
2017-08-19T11:12:24.841Z,29.40
2017-08-19T11:14:52.347Z,27.30
2017-08-19T11:17:24.420Z,27.00
2017-08-19T11:19:52.409Z,29.80
2017-08-19T11:22:19.956Z,26.90
2017-08-19T11:24:47.499Z,26.80
2017-08-19T11:27:15.072Z,27.60
2017-08-19T11:29:42.640Z,27.50
2017-08-19T11:32:13.260Z,27.20
2017-08-19T11:34:40.823Z,24.70
2017-08-19T11:37:09.260Z,25.60
2017-08-19T11:39:36.759Z,27.20
2017-08-19T11:42:04.293Z,28.60
2017-08-19T11:44:31.791Z,28.90
2017-08-19T11:47:00.219Z,33.10
2017-08-19T11:49:29.363Z,34.60
2017-08-19T11:51:56.865Z,36.00
2017-08-19T11:54:25.155Z,42.20
2017-08-19T11:56:53.203Z,42.30
2017-08-19T11:59:20.719Z,39.80
2017-08-19T12:01:50.982Z,40.70
2017-08-19T12:04:19.035Z,42.60
2017-08-19T12:06:46.538Z,44.30
2017-08-19T12:09:14.059Z,45.80
2017-08-19T12:11:42.506Z,45.80
2017-08-19T12:14:10.007Z,46.10
2017-08-19T12:16:37.538Z,40.50
2017-08-19T12:19:08.060Z,34.10
2017-08-19T12:21:35.645Z,29.10
2017-08-19T12:24:03.207Z,27.10
2017-08-19T12:26:30.712Z,25.10
2017-08-19T12:28:58.233Z,26.10
2017-08-19T12:31:37.021Z,25.70
2017-08-19T12:34:04.528Z,25.20
2017-08-19T12:36:32.783Z,26.40
2017-08-19T12:39:00.290Z,28.20
2017-08-19T12:41:27.787Z,28.50
2017-08-19T12:43:55.289Z,29.10
2017-08-19T12:46:22.803Z,31.80
2017-08-19T12:48:57.903Z,33.80
2017-08-19T12:51:26.204Z,31.20
2017-08-19T12:53:53.719Z,29.30
2017-08-19T12:56:21.216Z,28.80
2017-08-19T12:58:48.753Z,29.60
2017-08-19T13:01:17.191Z,31.70
2017-08-19T13:03:47.848Z,32.50
2017-08-19T13:06:16.060Z,35.30
2017-08-19T13:08:43.614Z,36.60
2017-08-19T13:11:12.093Z,36.10
2017-08-19T13:13:39.611Z,36.80
2017-08-19T13:16:07.134Z,38.00
2017-08-19T13:18:34.648Z,40.30
2017-08-19T13:21:02.158Z,39.50
2017-08-19T13:23:29.713Z,40.10
2017-08-19T13:25:57.215Z,40.50
2017-08-19T13:28:25.516Z,39.70
2017-08-19T13:30:53.830Z,41.20
2017-08-19T13:33:23.911Z,41.10
2017-08-19T13:35:51.456Z,40.10
2017-08-19T13:38:20.600Z,40.90
2017-08-19T13:40:48.135Z,42.50
2017-08-19T13:43:15.668Z,42.90
2017-08-19T13:45:43.179Z,44.30
2017-08-19T13:48:10.700Z,40.80
2017-08-19T13:50:41.816Z,42.50
2017-08-19T13:53:09.944Z,43.40
2017-08-19T13:55:37.451Z,43.00
2017-08-19T13:58:04.963Z,43.50
2017-08-19T14:00:32.468Z,44.00
2017-08-19T14:03:02.859Z,42.70
2017-08-19T14:05:31.303Z,42.10
2017-08-19T14:07:59.263Z,43.10
2017-08-19T14:10:27.883Z,43.80
2017-08-19T14:12:55.382Z,44.00
2017-08-19T14:15:22.899Z,44.80
2017-08-19T14:17:51.252Z,43.10
2017-08-19T14:20:19.876Z,42.90
2017-08-19T14:22:47.457Z,44.60
2017-08-19T14:25:14.991Z,45.00
2017-08-19T14:27:43.024Z,45.40
2017-08-19T14:30:10.592Z,45.60
2017-08-19T14:32:38.316Z,45.00
2017-08-19T14:35:05.844Z,44.70
2017-08-19T14:37:33.356Z,45.90
2017-08-19T14:40:00.935Z,46.50
2017-08-19T14:42:28.452Z,47.20
2017-08-19T14:44:56.891Z,47.90
2017-08-19T14:47:25.551Z,48.00
2017-08-19T14:49:53.064Z,47.00
2017-08-19T14:52:21.415Z,47.60
2017-08-19T14:54:48.968Z,44.00
2017-08-19T14:57:17.284Z,42.20
2017-08-19T14:59:45.393Z,41.40
2017-08-19T15:02:12.915Z,41.60
2017-08-19T15:04:40.740Z,43.20
2017-08-19T15:07:08.408Z,42.40
2017-08-19T15:09:35.969Z,42.10
2017-08-19T15:12:03.478Z,42.70
2017-08-19T15:14:31.020Z,41.60
2017-08-19T15:16:58.544Z,41.90
2017-08-19T15:19:29.555Z,39.70
2017-08-19T15:21:57.129Z,40.80
2017-08-19T15:24:25.137Z,40.20
2017-08-19T15:26:52.710Z,41.80
2017-08-19T15:29:20.407Z,42.00
2017-08-19T15:31:47.924Z,43.00
2017-08-19T15:34:19.179Z,44.00
2017-08-19T15:36:46.712Z,44.00
2017-08-19T15:39:14.239Z,45.10
2017-08-19T15:41:41.855Z,45.60
2017-08-19T15:44:09.456Z,44.70
2017-08-19T15:46:37.116Z,45.10
2017-08-19T15:49:04.671Z,44.90
2017-08-19T15:51:32.863Z,46.00
2017-08-19T15:54:00.376Z,48.40
2017-08-19T15:56:27.920Z,48.30
2017-08-19T15:58:55.488Z,48.00
2017-08-19T16:01:23.779Z,45.90
2017-08-19T16:03:52.752Z,46.40
2017-08-19T16:06:23.998Z,46.40
2017-08-19T16:08:53.635Z,48.10
2017-08-19T16:11:21.159Z,47.30
2017-08-19T16:13:48.721Z,48.20
2017-08-19T16:16:16.247Z,47.10
2017-08-19T16:18:43.756Z,45.70
2017-08-19T16:21:14.625Z,46.30
2017-08-19T16:23:45.751Z,46.00
2017-08-19T16:26:13.481Z,46.10
2017-08-19T16:28:41.763Z,46.50
2017-08-19T16:31:09.287Z,47.20
2017-08-19T16:33:37.376Z,48.70
2017-08-19T16:36:08.627Z,46.50
2017-08-19T16:38:36.127Z,47.50
2017-08-19T16:41:03.660Z,47.50
2017-08-19T16:43:31.831Z,46.90
2017-08-19T16:45:59.387Z,47.40
2017-08-19T16:48:26.887Z,46.60
2017-08-19T16:50:59.081Z,46.80
2017-08-19T16:53:26.587Z,46.70
2017-08-19T16:55:54.556Z,46.10
2017-08-19T16:58:22.067Z,48.00
2017-08-19T17:00:49.573Z,49.80
2017-08-19T17:03:17.120Z,48.20
2017-08-19T17:05:48.122Z,46.00
2017-08-19T17:08:19.178Z,46.70
2017-08-19T17:10:47.658Z,46.90
2017-08-19T17:13:15.180Z,47.00
2017-08-19T17:15:43.460Z,47.10
2017-08-19T17:18:11.528Z,47.10
2017-08-19T17:20:39.095Z,48.20
2017-08-19T17:23:06.651Z,48.90
2017-08-19T17:25:34.176Z,49.70
2017-08-19T17:28:01.760Z,51.40
2017-08-19T17:30:29.277Z,49.90
2017-08-19T17:32:56.785Z,53.20
2017-08-19T17:35:25.019Z,49.50
2017-08-19T17:37:55.150Z,49.60
2017-08-19T17:40:22.707Z,51.40
2017-08-19T17:42:50.219Z,51.40
2017-08-19T17:45:17.772Z,51.20
2017-08-19T17:47:45.368Z,52.80
2017-08-19T17:50:12.896Z,51.40
2017-08-19T17:52:40.408Z,52.10
2017-08-19T17:55:08.847Z,53.00
2017-08-19T17:57:36.375Z,52.20
2017-08-19T18:00:03.912Z,52.20
2017-08-19T18:02:31.597Z,52.70
2017-08-19T18:04:59.120Z,52.70
2017-08-19T18:07:26.635Z,52.80
2017-08-19T18:09:54.184Z,54.40
2017-08-19T18:12:22.288Z,52.90
2017-08-19T18:14:50.014Z,53.60
2017-08-19T18:17:17.565Z,54.00
2017-08-19T18:19:46.007Z,53.40
2017-08-19T18:22:19.383Z,54.60
2017-08-19T18:24:47.543Z,54.80
2017-08-19T18:27:15.055Z,55.30
2017-08-19T18:29:43.296Z,58.80
2017-08-19T18:32:11.001Z,56.30
2017-08-19T18:34:39.063Z,56.00
2017-08-19T18:37:07.405Z,59.10
2017-08-19T18:39:34.960Z,59.00
2017-08-19T18:42:02.467Z,60.20
2017-08-19T18:44:29.985Z,62.30
2017-08-19T18:46:57.487Z,61.00
2017-08-19T18:49:25.931Z,66.80
2017-08-19T18:51:53.439Z,72.60
2017-08-19T18:54:20.942Z,68.90
2017-08-19T18:56:48.440Z,66.30
2017-08-19T18:59:15.988Z,63.20
2017-08-19T19:01:43.552Z,66.80
2017-08-19T19:04:11.084Z,68.80
2017-08-19T19:06:39.285Z,67.80
2017-08-19T19:09:11.024Z,68.60
2017-08-19T19:11:38.571Z,68.10
2017-08-19T19:14:06.107Z,68.10
2017-08-19T19:16:34.256Z,69.30
2017-08-19T19:19:01.756Z,68.30
2017-08-19T19:21:29.267Z,67.70
2017-08-19T19:24:00.214Z,66.70
2017-08-19T19:26:27.768Z,67.10
2017-08-19T19:28:55.309Z,67.80
2017-08-19T19:31:24.417Z,71.90
2017-08-19T19:33:53.219Z,71.80
2017-08-19T19:36:20.733Z,71.50
2017-08-19T19:38:51.665Z,70.10
2017-08-19T19:41:19.607Z,71.50
2017-08-19T19:43:47.555Z,74.70
2017-08-19T19:46:15.858Z,76.00
2017-08-19T19:48:43.363Z,75.60
2017-08-19T19:51:10.879Z,77.80
2017-08-19T19:53:45.967Z,77.50
2017-08-19T19:56:14.063Z,78.40
2017-08-19T19:58:41.624Z,80.00
2017-08-19T20:01:09.140Z,79.80
2017-08-19T20:03:37.288Z,79.30
2017-08-19T20:06:04.839Z,79.40
2017-08-19T20:08:33.130Z,81.40
2017-08-19T20:11:00.640Z,82.00
2017-08-19T20:13:28.146Z,81.20
2017-08-19T20:15:55.871Z,82.80
2017-08-19T20:18:23.388Z,82.90
2017-08-19T20:20:52.587Z,84.30
2017-08-19T20:23:20.115Z,84.30
2017-08-19T20:25:49.836Z,85.20
2017-08-19T20:28:17.349Z,85.50
2017-08-19T20:30:44.913Z,85.20
2017-08-19T20:33:12.431Z,85.10
2017-08-19T20:35:39.939Z,82.10
2017-08-19T20:38:07.448Z,79.00
2017-08-19T20:40:34.975Z,79.80
2017-08-19T20:43:02.503Z,81.20
2017-08-19T20:45:31.464Z,83.00
2017-08-19T20:47:58.978Z,83.00
2017-08-19T20:50:26.483Z,82.80
2017-08-19T20:52:54.004Z,84.00
2017-08-19T20:55:21.513Z,86.00
2017-08-19T20:57:49.659Z,86.50
2017-08-19T21:00:17.191Z,85.80
2017-08-19T21:02:44.704Z,86.60
2017-08-19T21:05:12.251Z,87.00
2017-08-19T21:07:39.774Z,87.00
2017-08-19T21:10:08.207Z,87.20
2017-08-19T21:12:35.747Z,87.40
2017-08-19T21:15:03.528Z,88.20
2017-08-19T21:17:31.068Z,88.20
2017-08-19T21:19:59.721Z,88.90
2017-08-19T21:22:27.927Z,88.30
2017-08-19T21:24:55.443Z,89.10
2017-08-19T21:27:22.948Z,89.80
2017-08-19T21:29:50.476Z,90.00
2017-08-19T21:32:18.053Z,90.00
2017-08-19T21:34:45.656Z,90.00
2017-08-19T21:37:13.155Z,90.30
2017-08-19T21:39:41.391Z,90.50
2017-08-19T21:42:12.781Z,90.60
2017-08-19T21:44:40.308Z,91.00
2017-08-19T21:47:07.829Z,90.90
2017-08-19T21:49:36.323Z,90.90
2017-08-19T21:52:03.909Z,90.70
2017-08-19T21:54:31.440Z,90.90
2017-08-19T21:57:03.858Z,91.40
2017-08-19T21:59:31.381Z,91.30
2017-08-19T22:01:58.932Z,90.80
2017-08-19T22:04:26.488Z,90.70
2017-08-19T22:06:54.190Z,90.90
2017-08-19T22:09:21.732Z,91.10
2017-08-19T22:11:50.935Z,90.90
2017-08-19T22:14:18.480Z,90.90
2017-08-19T22:16:45.984Z,90.90
2017-08-19T22:19:13.523Z,90.50
2017-08-19T22:21:41.037Z,90.30
2017-08-19T22:24:09.520Z,90.50
2017-08-19T22:26:41.680Z,91.30
2017-08-19T22:29:10.025Z,91.30
2017-08-19T22:31:38.397Z,91.30
2017-08-19T22:34:05.891Z,91.20
2017-08-19T22:36:33.515Z,91.00
2017-08-19T22:39:01.020Z,91.10
2017-08-19T22:41:32.322Z,91.10
2017-08-19T22:43:59.819Z,90.70
2017-08-19T22:46:27.447Z,91.20
2017-08-19T22:48:54.988Z,91.10
2017-08-19T22:51:22.499Z,90.70
2017-08-19T22:53:50.048Z,91.10
2017-08-19T22:56:17.564Z,90.00
2017-08-19T22:58:48.969Z,90.70
2017-08-19T23:01:16.521Z,90.60
2017-08-19T23:03:44.042Z,91.00
2017-08-19T23:06:11.587Z,91.10
2017-08-19T23:08:39.416Z,90.80
2017-08-19T23:11:06.926Z,90.20
2017-08-19T23:13:43.229Z,91.40
2017-08-19T23:16:10.800Z,91.10
2017-08-19T23:18:38.883Z,90.90
2017-08-19T23:21:06.395Z,91.40
2017-08-19T23:23:33.937Z,91.50
2017-08-19T23:26:01.500Z,91.90
2017-08-19T23:28:29.224Z,91.30
2017-08-19T23:30:56.755Z,91.90
2017-08-19T23:33:24.319Z,91.70
2017-08-19T23:35:53.727Z,91.30
2017-08-19T23:38:21.283Z,91.20
2017-08-19T23:40:48.835Z,90.80
2017-08-19T23:43:17.183Z,91.20
2017-08-19T23:45:48.531Z,90.60
2017-08-19T23:48:16.504Z,90.40
2017-08-19T23:50:44.011Z,89.00
2017-08-19T23:53:12.132Z,88.00
2017-08-19T23:55:39.689Z,89.80
2017-08-19T23:58:10.532Z,87.20
